createdAt,value
2018-08-27T00:00:29.437Z,0
2018-08-27T00:01:09.993Z,0
2018-08-27T00:01:50.548Z,0
2018-08-27T00:02:31.111Z,0
2018-08-27T00:03:11.681Z,0
2018-08-27T00:03:52.225Z,0
2018-08-27T00:04:32.783Z,0
2018-08-27T00:05:13.347Z,0
2018-08-27T00:05:53.902Z,0
2018-08-27T00:06:34.473Z,0
2018-08-27T00:07:15.073Z,0
2018-08-27T00:07:55.672Z,0
2018-08-27T00:08:36.245Z,0
2018-08-27T00:09:16.820Z,0
2018-08-27T00:09:57.390Z,0
2018-08-27T00:10:37.952Z,0
2018-08-27T00:11:18.513Z,0
2018-08-27T00:11:59.169Z,0
2018-08-27T00:12:39.720Z,0
2018-08-27T00:13:20.303Z,0
2018-08-27T00:14:00.862Z,0
2018-08-27T00:14:41.419Z,0
2018-08-27T00:15:21.987Z,0
2018-08-27T00:16:02.578Z,0
2018-08-27T00:16:43.143Z,0
2018-08-27T00:17:23.714Z,0
2018-08-27T00:18:04.276Z,0
2018-08-27T00:18:44.844Z,0
2018-08-27T00:19:25.426Z,0
2018-08-27T00:20:06.015Z,0
2018-08-27T00:20:46.595Z,0
2018-08-27T00:21:27.141Z,0
2018-08-27T00:22:07.711Z,0
2018-08-27T00:22:48.296Z,0
2018-08-27T00:23:28.883Z,0
2018-08-27T00:24:09.440Z,0
2018-08-27T00:24:50.011Z,0
2018-08-27T00:25:30.606Z,0
2018-08-27T00:26:11.212Z,0
2018-08-27T00:26:51.783Z,0
2018-08-27T00:27:32.331Z,0
2018-08-27T00:28:12.891Z,0
2018-08-27T00:28:53.449Z,0
2018-08-27T00:29:34.028Z,0
2018-08-27T00:30:14.589Z,0
2018-08-27T00:30:55.144Z,0
2018-08-27T00:31:35.714Z,0
2018-08-27T00:32:16.272Z,0
2018-08-27T00:32:56.838Z,0
2018-08-27T00:33:37.409Z,0
2018-08-27T00:34:17.974Z,0
2018-08-27T00:34:58.538Z,0
2018-08-27T00:35:39.089Z,0
2018-08-27T00:36:19.666Z,0
2018-08-27T00:37:00.228Z,0
2018-08-27T00:37:40.811Z,0
2018-08-27T00:38:21.411Z,0
2018-08-27T00:39:02.012Z,0
2018-08-27T00:39:42.584Z,0
2018-08-27T00:40:23.157Z,0
2018-08-27T00:41:03.720Z,0
2018-08-27T00:41:44.305Z,0
2018-08-27T00:42:24.870Z,0
2018-08-27T00:43:05.437Z,0
2018-08-27T00:43:45.994Z,0
2018-08-27T00:44:26.559Z,0
2018-08-27T00:45:07.123Z,0
2018-08-27T00:45:47.688Z,0
2018-08-27T00:46:28.249Z,0
2018-08-27T00:47:08.803Z,0
2018-08-27T00:47:49.377Z,0
2018-08-27T00:48:29.933Z,0
2018-08-27T00:49:10.582Z,0
2018-08-27T00:49:51.119Z,0
2018-08-27T00:50:31.703Z,0
2018-08-27T00:51:12.267Z,0
2018-08-27T00:51:52.827Z,0
2018-08-27T00:52:33.389Z,0
2018-08-27T00:53:13.966Z,0
2018-08-27T00:53:54.536Z,0
2018-08-27T00:54:35.102Z,0
2018-08-27T00:55:15.675Z,0
2018-08-27T00:55:56.221Z,0
2018-08-27T00:56:36.801Z,0
2018-08-27T00:57:17.367Z,0
2018-08-27T00:57:57.930Z,0
2018-08-27T00:58:38.498Z,0
2018-08-27T00:59:19.052Z,0
2018-08-27T00:59:59.619Z,0
2018-08-27T01:00:40.188Z,0
2018-08-27T01:01:20.757Z,0
2018-08-27T01:02:01.312Z,0
2018-08-27T01:02:41.901Z,0
2018-08-27T01:03:22.447Z,0
2018-08-27T01:04:03.012Z,0
2018-08-27T01:04:43.568Z,0
2018-08-27T01:05:24.131Z,0
2018-08-27T01:06:04.696Z,0
2018-08-27T01:06:45.260Z,0
2018-08-27T01:07:25.820Z,0
2018-08-27T01:08:06.375Z,0
2018-08-27T01:08:46.938Z,0
2018-08-27T01:09:27.500Z,0
2018-08-27T01:10:08.098Z,0
2018-08-27T01:10:48.638Z,0
2018-08-27T01:11:29.206Z,0
2018-08-27T01:12:09.815Z,0
2018-08-27T01:12:50.389Z,0
2018-08-27T01:13:30.949Z,0
2018-08-27T01:14:11.530Z,0
2018-08-27T01:14:52.090Z,0
2018-08-27T01:15:32.663Z,0
2018-08-27T01:16:13.234Z,0
2018-08-27T01:16:53.784Z,0
2018-08-27T01:17:34.347Z,0
2018-08-27T01:18:14.915Z,0
2018-08-27T01:18:55.471Z,0
2018-08-27T01:19:36.041Z,0
2018-08-27T01:20:16.603Z,0
2018-08-27T01:20:57.170Z,0
2018-08-27T01:21:37.733Z,0
2018-08-27T01:22:18.309Z,0
2018-08-27T01:22:58.870Z,0
2018-08-27T01:23:39.432Z,0
2018-08-27T01:24:19.996Z,0
2018-08-27T01:25:00.560Z,0
2018-08-27T01:25:41.139Z,0
2018-08-27T01:26:21.737Z,0
2018-08-27T01:27:02.297Z,0
2018-08-27T01:27:42.867Z,0
2018-08-27T01:28:23.447Z,0
2018-08-27T01:29:04.007Z,0
2018-08-27T01:29:44.573Z,0
2018-08-27T01:30:25.132Z,0
2018-08-27T01:31:05.695Z,0
2018-08-27T01:31:46.282Z,0
2018-08-27T01:32:26.844Z,0
2018-08-27T01:33:07.412Z,0
2018-08-27T01:33:47.991Z,0
2018-08-27T01:34:28.570Z,0
2018-08-27T01:35:09.131Z,0
2018-08-27T01:35:49.694Z,0
2018-08-27T01:36:30.259Z,0
2018-08-27T01:37:10.833Z,0
2018-08-27T01:37:51.390Z,0
2018-08-27T01:38:31.952Z,0
2018-08-27T01:39:12.521Z,0
2018-08-27T01:39:53.132Z,0
2018-08-27T01:40:33.693Z,0
2018-08-27T01:41:14.256Z,0
2018-08-27T01:41:54.827Z,0
2018-08-27T01:42:35.386Z,0
2018-08-27T01:43:15.948Z,0
2018-08-27T01:43:56.517Z,0
2018-08-27T01:44:37.084Z,0
2018-08-27T01:45:17.644Z,0
2018-08-27T01:45:58.200Z,0
2018-08-27T01:46:38.762Z,0
2018-08-27T01:47:19.322Z,0
2018-08-27T01:47:59.880Z,0
2018-08-27T01:48:40.443Z,0
2018-08-27T01:49:21.001Z,0
2018-08-27T01:50:01.555Z,0
2018-08-27T01:50:42.110Z,0
2018-08-27T01:51:22.675Z,0
2018-08-27T01:52:03.239Z,0
2018-08-27T01:52:43.814Z,0
2018-08-27T01:53:24.391Z,0
2018-08-27T01:54:04.951Z,0
2018-08-27T01:54:45.516Z,0
2018-08-27T01:55:26.071Z,0
2018-08-27T01:56:06.626Z,0
2018-08-27T01:56:47.199Z,0
2018-08-27T01:57:27.757Z,0
2018-08-27T01:58:08.319Z,0
2018-08-27T01:58:48.889Z,0
2018-08-27T01:59:29.470Z,0
2018-08-27T02:00:10.027Z,0
2018-08-27T02:00:50.591Z,0
2018-08-27T02:01:31.166Z,0
2018-08-27T02:02:11.728Z,0
2018-08-27T02:02:52.295Z,0
2018-08-27T02:03:32.853Z,0
2018-08-27T02:04:13.409Z,0
2018-08-27T02:04:53.978Z,0
2018-08-27T02:05:34.549Z,0
2018-08-27T02:06:15.119Z,0
2018-08-27T02:06:55.668Z,0
2018-08-27T02:07:36.228Z,0
2018-08-27T02:08:16.796Z,0
2018-08-27T02:08:57.366Z,0
2018-08-27T02:09:37.925Z,0
2018-08-27T02:10:18.485Z,0
2018-08-27T02:10:59.046Z,0
2018-08-27T02:11:39.611Z,0
2018-08-27T02:12:20.179Z,0
2018-08-27T02:13:00.741Z,0
2018-08-27T02:13:41.300Z,0
2018-08-27T02:14:21.878Z,0
2018-08-27T02:15:02.447Z,0
2018-08-27T02:15:43.005Z,0
2018-08-27T02:16:23.566Z,0
2018-08-27T02:17:04.128Z,0
2018-08-27T02:17:44.688Z,0
2018-08-27T02:18:25.290Z,0
2018-08-27T02:19:05.842Z,0
2018-08-27T02:19:46.405Z,0
2018-08-27T02:20:26.966Z,0
2018-08-27T02:21:07.531Z,0
2018-08-27T02:21:48.092Z,0
2018-08-27T02:22:28.661Z,0
2018-08-27T02:23:09.243Z,0
2018-08-27T02:23:49.775Z,0
2018-08-27T02:24:30.350Z,0
2018-08-27T02:25:10.916Z,0
2018-08-27T02:25:51.495Z,0
2018-08-27T02:26:32.051Z,0
2018-08-27T02:27:12.608Z,0
2018-08-27T02:27:53.172Z,0
2018-08-27T02:28:33.730Z,0
2018-08-27T02:29:14.316Z,0
2018-08-27T02:29:54.871Z,0
2018-08-27T02:30:35.433Z,0
2018-08-27T02:31:15.998Z,0
2018-08-27T02:31:56.559Z,0
2018-08-27T02:32:37.143Z,0
2018-08-27T02:33:17.676Z,0
2018-08-27T02:33:58.312Z,0
2018-08-27T02:34:38.864Z,0
2018-08-27T02:35:19.437Z,0
2018-08-27T02:36:00.001Z,0
2018-08-27T02:36:40.574Z,0
2018-08-27T02:37:21.124Z,0
2018-08-27T02:38:01.696Z,0
2018-08-27T02:38:42.252Z,0
2018-08-27T02:39:22.842Z,0
2018-08-27T02:40:03.398Z,0
2018-08-27T02:40:43.976Z,0
2018-08-27T02:41:24.540Z,0
2018-08-27T02:42:05.108Z,0
2018-08-27T02:42:45.667Z,0
2018-08-27T02:43:26.245Z,0
2018-08-27T02:44:06.799Z,0
2018-08-27T02:44:47.356Z,0
2018-08-27T02:45:27.911Z,0
2018-08-27T02:46:08.468Z,0
2018-08-27T02:46:49.036Z,0
2018-08-27T02:47:29.617Z,0
2018-08-27T02:48:10.223Z,0
2018-08-27T02:48:50.757Z,0
2018-08-27T02:49:31.371Z,0
2018-08-27T02:50:11.934Z,0
2018-08-27T02:50:52.501Z,0
2018-08-27T02:51:33.053Z,0
2018-08-27T02:52:13.643Z,0
2018-08-27T02:52:54.266Z,0
2018-08-27T02:53:34.836Z,0
2018-08-27T02:54:15.408Z,0
2018-08-27T02:54:56.013Z,0
2018-08-27T02:55:36.581Z,0
2018-08-27T02:56:17.121Z,0
2018-08-27T02:56:57.744Z,0
2018-08-27T02:57:38.292Z,0
2018-08-27T02:58:18.859Z,0
2018-08-27T02:58:59.425Z,0
2018-08-27T02:59:39.994Z,0
2018-08-27T03:00:20.556Z,0
2018-08-27T03:01:01.111Z,0
2018-08-27T03:01:41.681Z,0
2018-08-27T03:02:22.263Z,0
2018-08-27T03:03:02.825Z,0
2018-08-27T03:03:43.379Z,0
2018-08-27T03:04:23.950Z,0
2018-08-27T03:05:04.509Z,0
2018-08-27T03:05:45.066Z,0
2018-08-27T03:06:25.647Z,0
2018-08-27T03:07:06.213Z,0
2018-08-27T03:07:46.784Z,0
2018-08-27T03:08:27.361Z,0
2018-08-27T03:09:07.930Z,0
2018-08-27T03:09:48.507Z,0
2018-08-27T03:10:29.067Z,0
2018-08-27T03:11:09.626Z,0
2018-08-27T03:11:50.197Z,0
2018-08-27T03:12:30.746Z,0
2018-08-27T03:13:11.323Z,0
2018-08-27T03:13:51.881Z,0
2018-08-27T03:14:32.470Z,0
2018-08-27T03:15:13.031Z,0
2018-08-27T03:15:53.597Z,0
2018-08-27T03:16:34.152Z,0
2018-08-27T03:17:14.730Z,0
2018-08-27T03:17:55.287Z,0
2018-08-27T03:18:35.966Z,0
2018-08-27T03:19:16.423Z,0
2018-08-27T03:19:56.977Z,0
2018-08-27T03:20:37.550Z,0
2018-08-27T03:21:18.106Z,0
2018-08-27T03:21:58.672Z,0
2018-08-27T03:22:39.216Z,0
2018-08-27T03:23:19.830Z,0
2018-08-27T03:24:00.405Z,0
2018-08-27T03:24:41.005Z,0
2018-08-27T03:25:21.609Z,0
2018-08-27T03:26:02.180Z,0
2018-08-27T03:26:42.732Z,0
2018-08-27T03:27:23.281Z,0
2018-08-27T03:28:03.894Z,0
2018-08-27T03:28:44.493Z,0
2018-08-27T03:29:25.059Z,0
2018-08-27T03:30:05.657Z,0
2018-08-27T03:30:46.222Z,0
2018-08-27T03:31:26.794Z,0
2018-08-27T03:32:07.323Z,0
2018-08-27T03:32:47.910Z,0
2018-08-27T03:33:28.505Z,0
2018-08-27T03:34:09.086Z,0
2018-08-27T03:34:49.676Z,0
2018-08-27T03:35:30.240Z,0
2018-08-27T03:36:10.788Z,0
2018-08-27T03:36:51.379Z,0
2018-08-27T03:37:31.917Z,4
2018-08-27T03:38:12.499Z,4
2018-08-27T03:38:53.032Z,4
2018-08-27T03:39:33.600Z,0
2018-08-27T03:40:14.160Z,4
2018-08-27T03:40:54.727Z,4
2018-08-27T03:41:35.337Z,4
2018-08-27T03:42:15.894Z,4
2018-08-27T03:42:56.464Z,4
2018-08-27T03:43:37.004Z,4
2018-08-27T03:44:17.570Z,4
2018-08-27T03:44:58.142Z,8
2018-08-27T03:45:38.696Z,8
2018-08-27T03:46:19.261Z,8
2018-08-27T03:46:59.825Z,8
2018-08-27T03:47:40.385Z,8
2018-08-27T03:48:20.932Z,12
2018-08-27T03:49:01.491Z,12
2018-08-27T03:49:42.063Z,12
2018-08-27T03:50:22.614Z,16
2018-08-27T03:51:03.209Z,20
2018-08-27T03:51:43.757Z,20
2018-08-27T03:52:24.322Z,20
2018-08-27T03:53:04.876Z,24
2018-08-27T03:53:45.446Z,24
2018-08-27T03:54:26.000Z,28
2018-08-27T03:55:06.595Z,28
2018-08-27T03:55:47.180Z,32
2018-08-27T03:56:27.755Z,36
2018-08-27T03:57:08.312Z,36
2018-08-27T03:57:48.855Z,40
2018-08-27T03:58:29.437Z,40
2018-08-27T03:59:09.999Z,48
2018-08-27T03:59:50.578Z,48
2018-08-27T04:00:31.141Z,56
2018-08-27T04:01:11.710Z,56
2018-08-27T04:01:52.279Z,64
2018-08-27T04:02:32.819Z,68
2018-08-27T04:03:13.380Z,72
2018-08-27T04:03:53.936Z,80
2018-08-27T04:04:34.504Z,84
2018-08-27T04:05:15.090Z,84
2018-08-27T04:05:55.636Z,92
2018-08-27T04:06:36.205Z,96
2018-08-27T04:07:16.756Z,104
2018-08-27T04:07:57.328Z,112
2018-08-27T04:08:37.901Z,120
2018-08-27T04:09:18.453Z,124
2018-08-27T04:09:59.017Z,136
2018-08-27T04:10:39.575Z,144
2018-08-27T04:11:20.137Z,152
2018-08-27T04:12:00.713Z,164
2018-08-27T04:12:41.265Z,172
2018-08-27T04:13:21.824Z,184
2018-08-27T04:14:02.375Z,200
2018-08-27T04:14:42.940Z,216
2018-08-27T04:15:23.503Z,224
2018-08-27T04:16:04.066Z,236
2018-08-27T04:16:44.620Z,248
2018-08-27T04:17:25.181Z,264
2018-08-27T04:18:05.738Z,276
2018-08-27T04:18:46.300Z,292
2018-08-27T04:19:26.876Z,316
2018-08-27T04:20:07.448Z,340
2018-08-27T04:20:48.019Z,364
2018-08-27T04:21:28.584Z,392
2018-08-27T04:22:09.158Z,416
2018-08-27T04:22:49.767Z,432
2018-08-27T04:23:30.357Z,452
2018-08-27T04:24:10.909Z,480
2018-08-27T04:24:51.474Z,508
2018-08-27T04:25:32.046Z,532
2018-08-27T04:26:12.589Z,556
2018-08-27T04:26:53.154Z,588
2018-08-27T04:27:33.785Z,612
2018-08-27T04:28:14.340Z,644
2018-08-27T04:28:55.046Z,680
2018-08-27T04:29:35.456Z,708
2018-08-27T04:30:16.042Z,740
2018-08-27T04:30:56.616Z,768
2018-08-27T04:31:37.173Z,796
2018-08-27T04:32:17.708Z,820
2018-08-27T04:32:58.274Z,844
2018-08-27T04:33:38.838Z,876
2018-08-27T04:34:19.423Z,908
2018-08-27T04:35:00.042Z,936
2018-08-27T04:35:40.547Z,968
2018-08-27T04:36:21.122Z,1000
2018-08-27T04:37:01.667Z,1028
2018-08-27T04:37:42.233Z,1048
2018-08-27T04:38:22.852Z,1064
2018-08-27T04:39:03.418Z,1076
2018-08-27T04:39:43.978Z,1084
2018-08-27T04:40:24.544Z,1084
2018-08-27T04:41:05.103Z,1080
2018-08-27T04:41:45.677Z,1080
2018-08-27T04:42:26.254Z,1076
2018-08-27T04:43:06.817Z,1068
2018-08-27T04:43:47.372Z,1056
2018-08-27T04:44:27.930Z,1060
2018-08-27T04:45:08.491Z,1084
2018-08-27T04:45:49.055Z,1112
2018-08-27T04:46:29.639Z,1144
2018-08-27T04:47:10.267Z,1184
2018-08-27T04:47:50.756Z,1220
2018-08-27T04:48:31.314Z,1240
2018-08-27T04:49:11.906Z,1252
2018-08-27T04:49:52.496Z,1264
2018-08-27T04:50:33.070Z,1272
2018-08-27T04:51:13.635Z,1268
2018-08-27T04:51:54.191Z,1256
2018-08-27T04:52:34.749Z,1212
2018-08-27T04:53:15.303Z,1172
2018-08-27T04:53:55.890Z,1120
2018-08-27T04:54:36.437Z,1072
2018-08-27T04:55:17.007Z,1032
2018-08-27T04:55:57.556Z,988
2018-08-27T04:56:38.117Z,948
2018-08-27T04:57:18.693Z,912
2018-08-27T04:57:59.270Z,884
2018-08-27T04:58:39.827Z,860
2018-08-27T04:59:20.424Z,840
2018-08-27T05:00:00.982Z,820
2018-08-27T05:00:41.532Z,792
2018-08-27T05:01:22.099Z,780
2018-08-27T05:02:02.664Z,776
2018-08-27T05:02:43.224Z,776
2018-08-27T05:03:23.782Z,788
2018-08-27T05:04:04.398Z,808
2018-08-27T05:04:44.956Z,856
2018-08-27T05:05:25.526Z,908
2018-08-27T05:06:06.085Z,932
2018-08-27T05:06:46.648Z,944
2018-08-27T05:07:27.215Z,952
2018-08-27T05:08:07.776Z,956
2018-08-27T05:08:48.341Z,964
2018-08-27T05:09:28.907Z,972
2018-08-27T05:10:09.477Z,972
2018-08-27T05:10:50.040Z,968
2018-08-27T05:11:30.591Z,968
2018-08-27T05:12:11.150Z,960
2018-08-27T05:12:51.748Z,948
2018-08-27T05:13:32.349Z,920
2018-08-27T05:14:12.925Z,888
2018-08-27T05:14:53.485Z,872
2018-08-27T05:15:34.079Z,860
2018-08-27T05:16:14.656Z,852
2018-08-27T05:16:55.222Z,848
2018-08-27T05:17:35.779Z,840
2018-08-27T05:18:16.436Z,836
2018-08-27T05:18:56.999Z,832
2018-08-27T05:19:37.565Z,832
2018-08-27T05:20:18.134Z,832
2018-08-27T05:20:58.699Z,836
2018-08-27T05:21:39.261Z,840
2018-08-27T05:22:19.828Z,848
2018-08-27T05:23:00.392Z,864
2018-08-27T05:23:40.967Z,896
2018-08-27T05:24:21.549Z,960
2018-08-27T05:25:02.091Z,1052
2018-08-27T05:25:42.659Z,1180
2018-08-27T05:26:23.237Z,1296
2018-08-27T05:27:03.830Z,1440
2018-08-27T05:27:44.394Z,1640
2018-08-27T05:28:24.971Z,1844
2018-08-27T05:29:05.524Z,2036
2018-08-27T05:29:46.090Z,2204
2018-08-27T05:30:26.685Z,2356
2018-08-27T05:31:07.311Z,2520
2018-08-27T05:31:47.783Z,2688
2018-08-27T05:32:28.364Z,2884
2018-08-27T05:33:08.927Z,3096
2018-08-27T05:33:49.488Z,3296
2018-08-27T05:34:30.052Z,3460
2018-08-27T05:35:10.813Z,3592
2018-08-27T05:35:51.383Z,3704
2018-08-27T05:36:31.935Z,3796
2018-08-27T05:37:12.499Z,3824
2018-08-27T05:37:53.112Z,3860
2018-08-27T05:38:33.716Z,3924
2018-08-27T05:39:14.291Z,4020
2018-08-27T05:39:54.865Z,4148
2018-08-27T05:40:35.440Z,4276
2018-08-27T05:41:16.006Z,4376
2018-08-27T05:41:56.592Z,4480
2018-08-27T05:42:37.523Z,4544
2018-08-27T05:43:18.129Z,4564
2018-08-27T05:43:59.652Z,4576
2018-08-27T05:44:40.379Z,4540
2018-08-27T05:45:21.076Z,4504
2018-08-27T05:46:01.661Z,4436
2018-08-27T05:46:44.170Z,4392
2018-08-27T05:47:24.666Z,4428
2018-08-27T05:48:05.257Z,4492
2018-08-27T05:48:45.836Z,4652
2018-08-27T05:49:26.939Z,4884
2018-08-27T05:50:08.457Z,5100
2018-08-27T05:50:49.078Z,5200
2018-08-27T05:51:29.655Z,5292
2018-08-27T05:52:10.286Z,5488
2018-08-27T05:52:50.873Z,5528
2018-08-27T05:53:31.889Z,5636
2018-08-27T05:54:13.715Z,5844
2018-08-27T05:54:54.254Z,6264
2018-08-27T05:55:34.881Z,6556
2018-08-27T05:56:15.577Z,6788
2018-08-27T05:56:56.103Z,6880
2018-08-27T05:57:36.658Z,6908
2018-08-27T05:58:17.225Z,6780
2018-08-27T05:58:57.841Z,6504
2018-08-27T05:59:38.479Z,6364
2018-08-27T06:00:19.474Z,6208
2018-08-27T06:00:59.982Z,6056
2018-08-27T06:01:40.655Z,5884
2018-08-27T06:02:21.094Z,5912
2018-08-27T06:03:01.670Z,5936
2018-08-27T06:03:42.227Z,5992
2018-08-27T06:04:22.791Z,6212
2018-08-27T06:05:03.436Z,6516
2018-08-27T06:05:43.989Z,6884
2018-08-27T06:06:24.557Z,7148
2018-08-27T06:07:05.117Z,7460
2018-08-27T06:07:45.690Z,8032
2018-08-27T06:08:26.272Z,8724
2018-08-27T06:09:06.916Z,9288
2018-08-27T06:09:47.453Z,9844
2018-08-27T06:10:28.032Z,10092
2018-08-27T06:11:08.636Z,10096
2018-08-27T06:11:49.154Z,9808
2018-08-27T06:12:29.754Z,9336
2018-08-27T06:13:10.311Z,8948
2018-08-27T06:13:50.917Z,8464
2018-08-27T06:14:31.479Z,7868
2018-08-27T06:15:12.040Z,7284
2018-08-27T06:15:52.606Z,6952
2018-08-27T06:16:33.187Z,6428
2018-08-27T06:17:14.108Z,5556
2018-08-27T06:17:54.562Z,5340
2018-08-27T06:18:35.131Z,5260
2018-08-27T06:19:15.691Z,5172
2018-08-27T06:19:56.287Z,5180
2018-08-27T06:20:36.855Z,5356
2018-08-27T06:21:17.512Z,5600
2018-08-27T06:21:58.139Z,5812
2018-08-27T06:22:38.715Z,6056
2018-08-27T06:23:19.403Z,6524
2018-08-27T06:24:00.168Z,7084
2018-08-27T06:24:40.762Z,7868
2018-08-27T06:25:21.441Z,8448
2018-08-27T06:26:02.001Z,9476
2018-08-27T06:26:42.568Z,10980
2018-08-27T06:27:23.321Z,11672
2018-08-27T06:28:03.891Z,53664
2018-08-27T06:28:44.448Z,71616
2018-08-27T06:29:25.004Z,70656
2018-08-27T06:30:05.590Z,61248
2018-08-27T06:30:46.165Z,42848
2018-08-27T06:31:26.722Z,32256
2018-08-27T06:32:07.297Z,34304
2018-08-27T06:32:47.917Z,19744
2018-08-27T06:33:28.458Z,14636
2018-08-27T06:34:09.015Z,18112
2018-08-27T06:34:49.575Z,23936
2018-08-27T06:35:30.318Z,13592
2018-08-27T06:36:10.937Z,10044
2018-08-27T06:36:51.499Z,9656
2018-08-27T06:37:32.186Z,12712
2018-08-27T06:38:12.962Z,32384
2018-08-27T06:38:53.527Z,38880
2018-08-27T06:39:34.098Z,10932
2018-08-27T06:40:14.664Z,7904
2018-08-27T06:40:55.252Z,6960
2018-08-27T06:41:35.877Z,6532
2018-08-27T06:42:16.544Z,6412
2018-08-27T06:42:57.126Z,6396
2018-08-27T06:43:37.972Z,6288
2018-08-27T06:44:18.704Z,6068
2018-08-27T06:44:59.296Z,5892
2018-08-27T06:45:40.077Z,5696
2018-08-27T06:46:21.266Z,5496
2018-08-27T06:47:01.793Z,5352
2018-08-27T06:47:42.414Z,5212
2018-08-27T06:48:23.043Z,5204
2018-08-27T06:49:03.601Z,5420
2018-08-27T06:49:44.164Z,5740
2018-08-27T06:50:24.768Z,6200
2018-08-27T06:51:05.423Z,6732
2018-08-27T06:51:46.024Z,7324
2018-08-27T06:52:26.671Z,8276
2018-08-27T06:53:07.296Z,8728
2018-08-27T06:53:47.857Z,8884
2018-08-27T06:54:28.451Z,9160
2018-08-27T06:55:09.168Z,9480
2018-08-27T06:55:49.833Z,9212
2018-08-27T06:56:31.605Z,8576
2018-08-27T06:57:12.166Z,7944
2018-08-27T06:57:53.717Z,7500
2018-08-27T06:58:34.410Z,7304
2018-08-27T06:59:15.153Z,7588
2018-08-27T06:59:55.768Z,7812
2018-08-27T07:00:36.327Z,8260
2018-08-27T07:01:16.925Z,9024
2018-08-27T07:01:57.568Z,10820
2018-08-27T07:02:38.183Z,10388
2018-08-27T07:03:18.755Z,10292
2018-08-27T07:03:59.316Z,8444
2018-08-27T07:04:39.947Z,8332
2018-08-27T07:05:20.520Z,8236
2018-08-27T07:06:01.129Z,8516
2018-08-27T07:06:41.731Z,8544
2018-08-27T07:07:22.319Z,8896
2018-08-27T07:08:02.861Z,9288
2018-08-27T07:08:43.568Z,9756
2018-08-27T07:09:24.164Z,10784
2018-08-27T07:10:04.737Z,16800
2018-08-27T07:10:45.302Z,21536
2018-08-27T07:11:25.876Z,31200
2018-08-27T07:12:06.434Z,25920
2018-08-27T07:12:47.026Z,16800
2018-08-27T07:13:27.592Z,18240
2018-08-27T07:14:08.192Z,21536
2018-08-27T07:14:48.819Z,23648
2018-08-27T07:15:29.398Z,18464
2018-08-27T07:16:10.099Z,29920
2018-08-27T07:16:50.704Z,12172
2018-08-27T07:17:31.267Z,10836
2018-08-27T07:18:11.857Z,10132
2018-08-27T07:18:52.428Z,10108
2018-08-27T07:19:33.011Z,12600
2018-08-27T07:20:13.632Z,34144
2018-08-27T07:20:54.207Z,28832
2018-08-27T07:21:34.768Z,37184
2018-08-27T07:22:15.336Z,25632
2018-08-27T07:22:55.898Z,47712
2018-08-27T07:23:36.465Z,9848
2018-08-27T07:24:17.009Z,9916
2018-08-27T07:24:57.581Z,8020
2018-08-27T07:25:38.136Z,6884
2018-08-27T07:26:18.734Z,6304
2018-08-27T07:26:59.297Z,6004
2018-08-27T07:27:39.867Z,6012
2018-08-27T07:28:20.476Z,5640
2018-08-27T07:29:01.083Z,5084
2018-08-27T07:29:41.638Z,5000
2018-08-27T07:30:22.201Z,5080
2018-08-27T07:31:02.815Z,5200
2018-08-27T07:31:43.365Z,5192
2018-08-27T07:32:23.948Z,4936
2018-08-27T07:33:04.550Z,4944
2018-08-27T07:33:45.111Z,5192
2018-08-27T07:34:25.698Z,6088
2018-08-27T07:35:06.268Z,5832
2018-08-27T07:35:46.837Z,6176
2018-08-27T07:36:27.455Z,6268
2018-08-27T07:37:07.975Z,6036
2018-08-27T07:37:48.551Z,5564
2018-08-27T07:38:29.107Z,5476
2018-08-27T07:39:09.701Z,5848
2018-08-27T07:39:50.260Z,6832
2018-08-27T07:40:30.816Z,8788
2018-08-27T07:41:11.380Z,9368
2018-08-27T07:41:51.955Z,14068
2018-08-27T07:42:32.532Z,15600
2018-08-27T07:43:13.111Z,15488
2018-08-27T07:43:53.649Z,23200
2018-08-27T07:44:34.256Z,27168
2018-08-27T07:45:14.834Z,72832
2018-08-27T07:45:55.458Z,42080
2018-08-27T07:46:36.154Z,43904
2018-08-27T07:47:16.746Z,50848
2018-08-27T07:47:57.313Z,36256
2018-08-27T07:48:37.893Z,32576
2018-08-27T07:49:18.467Z,51616
2018-08-27T07:49:59.035Z,20352
2018-08-27T07:50:39.621Z,18656
2018-08-27T07:51:20.239Z,29920
2018-08-27T07:52:00.804Z,13560
2018-08-27T07:52:41.753Z,16320
2018-08-27T07:53:23.469Z,13372
2018-08-27T07:54:03.637Z,12820
2018-08-27T07:54:44.205Z,14740
2018-08-27T07:55:24.759Z,14676
2018-08-27T07:56:05.339Z,13588
2018-08-27T07:56:45.918Z,25184
2018-08-27T07:57:26.522Z,13128
2018-08-27T07:58:07.092Z,23008
2018-08-27T07:58:47.641Z,14288
2018-08-27T07:59:28.227Z,14776
2018-08-27T08:00:08.800Z,11908
2018-08-27T08:00:49.390Z,10380
2018-08-27T08:01:29.949Z,9900
2018-08-27T08:02:11.340Z,13728
2018-08-27T08:02:53.237Z,14024
2018-08-27T08:03:33.821Z,19360
2018-08-27T08:04:14.457Z,14548
2018-08-27T08:04:55.023Z,18304
2018-08-27T08:05:35.585Z,16992
2018-08-27T08:06:16.426Z,16768
2018-08-27T08:06:57.128Z,24192
2018-08-27T08:07:37.641Z,39456
2018-08-27T08:08:18.285Z,37568
2018-08-27T08:08:58.976Z,12852
2018-08-27T08:09:40.596Z,12680
2018-08-27T08:10:21.445Z,13776
2018-08-27T08:11:02.016Z,37824
2018-08-27T08:11:42.639Z,31936
2018-08-27T08:12:23.236Z,23968
2018-08-27T08:13:03.911Z,19264
2018-08-27T08:13:44.654Z,19776
2018-08-27T08:14:25.387Z,23104
2018-08-27T08:15:06.114Z,22176
2018-08-27T08:15:46.690Z,21792
2018-08-27T08:16:27.375Z,22464
2018-08-27T08:17:08.191Z,21504
2018-08-27T08:17:48.768Z,20480
2018-08-27T08:18:29.504Z,17888
2018-08-27T08:19:10.071Z,18176
2018-08-27T08:19:50.770Z,19040
2018-08-27T08:20:31.530Z,19744
2018-08-27T08:21:12.158Z,17856
2018-08-27T08:21:52.859Z,19136
2018-08-27T08:22:33.434Z,17344
2018-08-27T08:23:13.991Z,17856
2018-08-27T08:23:54.558Z,17120
2018-08-27T08:24:35.160Z,15572
2018-08-27T08:25:15.693Z,14784
2018-08-27T08:25:56.288Z,15688
2018-08-27T08:26:36.896Z,16096
2018-08-27T08:27:17.414Z,15592
2018-08-27T08:27:58.012Z,17344
2018-08-27T08:28:38.650Z,16000
2018-08-27T08:29:19.229Z,14680
2018-08-27T08:29:59.795Z,14592
2018-08-27T08:30:40.349Z,14296
2018-08-27T08:31:20.929Z,13484
2018-08-27T08:32:01.495Z,13252
2018-08-27T08:32:42.066Z,13644
2018-08-27T08:33:22.687Z,13728
2018-08-27T08:34:03.176Z,14036
2018-08-27T08:34:43.847Z,14640
2018-08-27T08:35:24.462Z,16032
2018-08-27T08:36:05.033Z,15124
2018-08-27T08:36:45.583Z,14776
2018-08-27T08:37:26.189Z,14488
2018-08-27T08:38:06.742Z,14192
2018-08-27T08:38:47.316Z,13584
2018-08-27T08:39:27.950Z,13608
2018-08-27T08:40:08.616Z,13564
2018-08-27T08:40:49.165Z,13428
2018-08-27T08:41:29.743Z,14136
2018-08-27T08:42:10.299Z,13556
2018-08-27T08:42:50.961Z,14488
2018-08-27T08:43:31.608Z,13624
2018-08-27T08:44:12.179Z,13468
2018-08-27T08:44:52.811Z,13240
2018-08-27T08:45:33.382Z,13280
2018-08-27T08:46:13.943Z,13088
2018-08-27T08:46:54.507Z,13308
2018-08-27T08:47:35.081Z,13496
2018-08-27T08:48:15.657Z,14320
2018-08-27T08:48:56.225Z,14664
2018-08-27T08:49:36.784Z,14336
2018-08-27T08:50:17.396Z,14264
2018-08-27T08:50:57.973Z,13756
2018-08-27T08:51:38.577Z,13732
2018-08-27T08:52:19.151Z,13396
2018-08-27T08:52:59.713Z,13156
2018-08-27T08:53:40.338Z,12508
2018-08-27T08:54:20.866Z,12364
2018-08-27T08:55:01.431Z,11980
2018-08-27T08:55:42.012Z,11428
2018-08-27T08:56:22.625Z,10872
2018-08-27T08:57:03.238Z,10416
2018-08-27T08:57:43.798Z,10228
2018-08-27T08:58:24.339Z,10388
2018-08-27T08:59:04.932Z,10796
2018-08-27T08:59:45.630Z,11112
2018-08-27T09:00:26.232Z,11308
2018-08-27T09:01:06.819Z,11452
2018-08-27T09:01:47.408Z,11704
2018-08-27T09:02:27.955Z,12020
2018-08-27T09:03:08.523Z,11840
2018-08-27T09:03:49.117Z,11748
2018-08-27T09:04:29.707Z,11500
2018-08-27T09:05:10.262Z,10940
2018-08-27T09:05:50.858Z,10428
2018-08-27T09:06:31.415Z,9780
2018-08-27T09:07:11.977Z,9224
2018-08-27T09:07:52.550Z,8604
2018-08-27T09:08:33.258Z,7852
2018-08-27T09:09:13.696Z,7172
2018-08-27T09:09:54.347Z,6576
2018-08-27T09:10:34.986Z,6112
2018-08-27T09:11:15.727Z,5700
2018-08-27T09:11:56.631Z,5320
2018-08-27T09:12:37.196Z,4860
2018-08-27T09:13:17.788Z,4460
2018-08-27T09:13:58.390Z,4136
2018-08-27T09:14:38.957Z,3908
2018-08-27T09:15:19.537Z,3780
2018-08-27T09:16:00.101Z,3668
2018-08-27T09:16:40.667Z,3592
2018-08-27T09:17:21.237Z,3584
2018-08-27T09:18:01.792Z,3612
2018-08-27T09:18:42.379Z,3720
2018-08-27T09:19:22.970Z,3876
2018-08-27T09:20:03.543Z,3992
2018-08-27T09:20:44.104Z,4084
2018-08-27T09:21:24.662Z,4092
2018-08-27T09:22:05.259Z,4036
2018-08-27T09:22:45.827Z,3980